Alix, Arkansas
Current Conditions -  °F | °C
As of 7:14 AM on Sunday 23 Nov 2014 (Local Time) from KFSM Reporting Station
Overcast Overcast  
Wind Chill: 56°   Ceiling: 1600
Heat Index: 56°   Visibility: 7mi
Dew Point: 53°   Wind: 6mph
Humidity: 90%   Direction: 30°NNE
Pressure: 29.58"   Gusts: NA
Location:  35.43°N, 93.73°W
Report Text: KFSM 231314Z 03005KT 7SM BKN016 OVC023 13/12 A2958 RMK AO2 T01330117
Loading
Personal Weather Stations






























Interactive Weather Map New forecast layout! Learn more

10-Day Weather Forecast

Advertisements
Track Severe Weather on mobile